sensor_id;sensor_type;location;lat;lon;timestamp;pressure;altitude;pressure_sealevel;temperature;humidity
74542;BME280;63015;45.378;20.360;2023-05-16T00:00:08;100061.81;;;14.52;85.68
74542;BME280;63015;45.378;20.360;2023-05-16T00:02:09;100062.84;;;14.45;85.67
74542;BME280;63015;45.378;20.360;2023-05-16T00:04:10;100063.41;;;14.59;85.33
74542;BME280;63015;45.378;20.360;2023-05-16T00:06:10;100059.94;;;14.57;85.40
74542;BME280;63015;45.378;20.360;2023-05-16T00:08:11;100052.34;;;14.45;85.76
74542;BME280;63015;45.378;20.360;2023-05-16T00:10:12;100053.06;;;14.53;85.40
74542;BME280;63015;45.378;20.360;2023-05-16T00:12:13;100052.94;;;14.58;85.05
74542;BME280;63015;45.378;20.360;2023-05-16T00:14:13;100044.91;;;14.66;84.59
74542;BME280;63015;45.378;20.360;2023-05-16T00:16:14;100049.13;;;14.73;83.76
74542;BME280;63015;45.378;20.360;2023-05-16T00:18:15;100057.19;;;14.65;84.40
74542;BME280;63015;45.378;20.360;2023-05-16T00:20:16;100051.38;;;14.51;85.33
74542;BME280;63015;45.378;20.360;2023-05-16T00:22:25;100051.53;;;14.43;85.68
74542;BME280;63015;45.378;20.360;2023-05-16T00:24:26;100059.41;;;14.43;85.86
74542;BME280;63015;45.378;20.360;2023-05-16T00:26:27;100050.81;;;14.36;86.22
74542;BME280;63015;45.378;20.360;2023-05-16T00:28:27;100043.72;;;14.41;86.31
74542;BME280;63015;45.378;20.360;2023-05-16T00:30:28;100044.44;;;14.48;85.60
74542;BME280;63015;45.378;20.360;2023-05-16T00:32:28;100045.34;;;14.47;85.82
74542;BME280;63015;45.378;20.360;2023-05-16T00:34:29;100038.66;;;14.34;86.52
74542;BME280;63015;45.378;20.360;2023-05-16T00:36:30;100043.09;;;14.30;86.58
74542;BME280;63015;45.378;20.360;2023-05-16T00:38:31;100049.91;;;14.39;86.68
74542;BME280;63015;45.378;20.360;2023-05-16T00:40:31;100052.34;;;14.45;86.31
74542;BME280;63015;45.378;20.360;2023-05-16T00:42:32;100055.81;;;14.47;85.96
74542;BME280;63015;45.378;20.360;2023-05-16T00:44:33;100042.03;;;14.39;86.18
74542;BME280;63015;45.378;20.360;2023-05-16T00:46:34;100051.53;;;14.43;86.12
74542;BME280;63015;45.378;20.360;2023-05-16T00:48:35;100048.09;;;14.41;86.47
74542;BME280;63015;45.378;20.360;2023-05-16T00:50:36;100065.53;;;14.42;86.14
74542;BME280;63015;45.378;20.360;2023-05-16T00:52:37;100061.84;;;14.51;85.61
74542;BME280;63015;45.378;20.360;2023-05-16T00:54:37;100040.16;;;14.44;85.91
74542;BME280;63015;45.378;20.360;2023-05-16T00:56:38;100044.72;;;14.36;86.11
74542;BME280;63015;45.378;20.360;2023-05-16T00:58:39;100038.34;;;14.46;86.14
74542;BME280;63015;45.378;20.360;2023-05-16T01:00:39;100033.19;;;14.43;85.46
74542;BME280;63015;45.378;20.360;2023-05-16T01:02:40;100028.03;;;14.38;86.37
74542;BME280;63015;45.378;20.360;2023-05-16T01:04:45;100030.56;;;14.43;86.15
74542;BME280;63015;45.378;20.360;2023-05-16T01:06:47;100024.63;;;14.36;86.31
74542;BME280;63015;45.378;20.360;2023-05-16T01:08:48;100015.50;;;14.51;85.83
74542;BME280;63015;45.378;20.360;2023-05-16T01:16:15;100007.84;;;14.43;86.16
74542;BME280;63015;45.378;20.360;2023-05-16T01:18:41;100009.59;;;14.43;86.30
74542;BME280;63015;45.378;20.360;2023-05-16T01:20:52;100021.06;;;14.39;86.65
74542;BME280;63015;45.378;20.360;2023-05-16T01:23:16;100013.91;;;14.45;86.03
74542;BME280;63015;45.378;20.360;2023-05-16T01:27:56;100014.66;;;14.51;85.95
74542;BME280;63015;45.378;20.360;2023-05-16T01:29:58;100021.78;;;14.45;85.82
74542;BME280;63015;45.378;20.360;2023-05-16T01:31:58;100029.59;;;14.47;86.15
74542;BME280;63015;45.378;20.360;2023-05-16T01:33:59;100018.00;;;14.57;85.50
74542;BME280;63015;45.378;20.360;2023-05-16T01:43:04;99996.53;;;14.41;86.44
74542;BME280;63015;45.378;20.360;2023-05-16T01:45:15;99987.75;;;14.44;86.20
74542;BME280;63015;45.378;20.360;2023-05-16T01:47:19;99995.59;;;14.44;86.11
74542;BME280;63015;45.378;20.360;2023-05-16T01:50:04;99999.16;;;14.41;86.05
74542;BME280;63015;45.378;20.360;2023-05-16T01:51:50;100005.78;;;14.56;85.63
74542;BME280;63015;45.378;20.360;2023-05-16T01:53:54;100000.44;;;14.61;85.29
74542;BME280;63015;45.378;20.360;2023-05-16T01:56:00;99997.97;;;14.55;85.55
74542;BME280;63015;45.378;20.360;2023-05-16T01:58:03;99995.13;;;14.64;84.91
74542;BME280;63015;45.378;20.360;2023-05-16T02:00:04;99995.19;;;14.61;85.20
74542;BME280;63015;45.378;20.360;2023-05-16T02:02:17;99987.75;;;14.44;85.75
74542;BME280;63015;45.378;20.360;2023-05-16T02:04:18;99976.69;;;14.69;84.88
74542;BME280;63015;45.378;20.360;2023-05-16T02:06:19;99996.97;;;14.59;84.92
74542;BME280;63015;45.378;20.360;2023-05-16T02:08:19;100001.97;;;14.71;84.43
74542;BME280;63015;45.378;20.360;2023-05-16T02:10:24;99980.91;;;14.74;84.19
74542;BME280;63015;45.378;20.360;2023-05-16T02:12:24;99985.88;;;14.47;85.05
74542;BME280;63015;45.378;20.360;2023-05-16T02:14:26;99969.03;;;14.58;84.94
74542;BME280;63015;45.378;20.360;2023-05-16T02:16:29;99981.03;;;14.68;84.80
74542;BME280;63015;45.378;20.360;2023-05-16T02:18:32;99977.47;;;14.71;84.28
74542;BME280;63015;45.378;20.360;2023-05-16T02:20:33;99973.88;;;14.76;83.93
74542;BME280;63015;45.378;20.360;2023-05-16T02:22:35;99974.28;;;14.58;84.80
74542;BME280;63015;45.378;20.360;2023-05-16T02:24:36;99967.91;;;14.70;84.55
74542;BME280;63015;45.378;20.360;2023-05-16T02:26:37;99969.97;;;14.55;84.97
74542;BME280;63015;45.378;20.360;2023-05-16T02:28:37;99979.78;;;14.47;85.57
74542;BME280;63015;45.378;20.360;2023-05-16T02:30:38;99980.25;;;14.66;85.07
74542;BME280;63015;45.378;20.360;2023-05-16T02:32:39;99979.25;;;14.70;84.64
74542;BME280;63015;45.378;20.360;2023-05-16T02:34:41;99976.69;;;14.69;84.56
74542;BME280;63015;45.378;20.360;2023-05-16T02:36:42;99984.59;;;14.67;84.67
74542;BME280;63015;45.378;20.360;2023-05-16T02:38:43;99968.84;;;14.67;84.53
74542;BME280;63015;45.378;20.360;2023-05-16T02:40:44;99974.13;;;14.66;84.91
74542;BME280;63015;45.378;20.360;2023-05-16T02:42:44;99968.66;;;14.75;84.26
74542;BME280;63015;45.378;20.360;2023-05-16T02:44:45;99970.59;;;14.67;84.48
74542;BME280;63015;45.378;20.360;2023-05-16T02:46:45;99965.47;;;14.62;84.81
74542;BME280;63015;45.378;20.360;2023-05-16T02:48:46;99977.53;;;14.69;84.78
74542;BME280;63015;45.378;20.360;2023-05-16T02:50:47;99981.00;;;14.71;84.75
74542;BME280;63015;45.378;20.360;2023-05-16T02:52:47;99977.66;;;14.65;85.20
74542;BME280;63015;45.378;20.360;2023-05-16T02:54:48;99972.53;;;14.58;85.35
74542;BME280;63015;45.378;20.360;2023-05-16T02:56:48;99969.03;;;14.58;85.24
74542;BME280;63015;45.378;20.360;2023-05-16T02:58:49;99966.41;;;14.58;85.57
74542;BME280;63015;45.378;20.360;2023-05-16T03:00:50;99961.88;;;14.66;84.79
74542;BME280;63015;45.378;20.360;2023-05-16T03:02:50;99962.84;;;14.62;85.03
74542;BME280;63015;45.378;20.360;2023-05-16T03:04:51;99970.84;;;14.56;85.54
74542;BME280;63015;45.378;20.360;2023-05-16T03:06:52;99971.38;;;14.70;84.97
74542;BME280;63015;45.378;20.360;2023-05-16T03:08:52;99974.16;;;14.64;84.90
74542;BME280;63015;45.378;20.360;2023-05-16T03:10:54;99960.06;;;14.68;84.98
74542;BME280;63015;45.378;20.360;2023-05-16T03:12:54;99966.31;;;14.62;85.40
74542;BME280;63015;45.378;20.360;2023-05-16T03:14:56;99968.63;;;14.76;84.44
74542;BME280;63015;45.378;20.360;2023-05-16T03:16:56;99973.88;;;14.76;84.78
74542;BME280;63015;45.378;20.360;2023-05-16T03:18:57;99967.91;;;14.70;84.68
74542;BME280;63015;45.378;20.360;2023-05-16T03:20:57;99968.41;;;14.84;84.23
74542;BME280;63015;45.378;20.360;2023-05-16T03:22:58;99955.50;;;14.76;84.32
74542;BME280;63015;45.378;20.360;2023-05-16T03:24:59;99956.09;;;14.86;84.19
74542;BME280;63015;45.378;20.360;2023-05-16T03:27:00;99960.47;;;14.87;83.89
74542;BME280;63015;45.378;20.360;2023-05-16T03:29:03;99959.84;;;14.77;84.45
74542;BME280;63015;45.378;20.360;2023-05-16T03:31:03;99945.94;;;14.74;84.66
74542;BME280;63015;45.378;20.360;2023-05-16T03:33:04;99943.00;;;14.86;83.90
74542;BME280;63015;45.378;20.360;2023-05-16T03:35:04;99936.19;;;14.79;84.20
74542;BME280;63015;45.378;20.360;2023-05-16T03:37:05;99940.66;;;14.75;84.59
74542;BME280;63015;45.378;20.360;2023-05-16T03:39:06;99942.34;;;14.78;84.71
74542;BME280;63015;45.378;20.360;2023-05-16T03:41:07;99941.16;;;14.90;84.17
74542;BME280;63015;45.378;20.360;2023-05-16T03:43:08;99934.19;;;14.89;84.02
74542;BME280;63015;45.378;20.360;2023-05-16T03:45:09;99933.44;;;14.85;84.48
74542;BME280;63015;45.378;20.360;2023-05-16T03:47:10;99935.41;;;14.75;84.97
74542;BME280;63015;45.378;20.360;2023-05-16T03:49:11;99921.81;;;14.94;84.02
74542;BME280;63015;45.378;20.360;2023-05-16T03:51:11;99912.19;;;14.94;83.84
74542;BME280;63015;45.378;20.360;2023-05-16T03:53:12;99904.47;;;14.88;84.08
74542;BME280;63015;45.378;20.360;2023-05-16T03:55:13;99907.41;;;14.77;84.83
74542;BME280;63015;45.378;20.360;2023-05-16T03:57:14;99905.47;;;14.84;84.83
74542;BME280;63015;45.378;20.360;2023-05-16T03:59:15;99915.81;;;14.90;84.56
74542;BME280;63015;45.378;20.360;2023-05-16T04:01:16;99919.16;;;14.95;84.37
74542;BME280;63015;45.378;20.360;2023-05-16T04:03:16;99921.78;;;14.95;84.27
74542;BME280;63015;45.378;20.360;2023-05-16T04:05:17;99930.25;;;15.05;84.00
74542;BME280;63015;45.378;20.360;2023-05-16T04:07:18;99946.72;;;15.10;83.62
74542;BME280;63015;45.378;20.360;2023-05-16T04:09:18;99959.81;;;15.12;83.38
74542;BME280;63015;45.378;20.360;2023-05-16T04:11:19;99943.03;;;15.18;83.23
74542;BME280;63015;45.378;20.360;2023-05-16T04:13:20;99942.31;;;15.12;83.59
74542;BME280;63015;45.378;20.360;2023-05-16T04:15:21;99924.06;;;15.08;83.66
74542;BME280;63015;45.378;20.360;2023-05-16T04:17:21;99916.44;;;14.99;84.03
74542;BME280;63015;45.378;20.360;2023-05-16T04:19:22;99920.69;;;15.03;84.07
74542;BME280;63015;45.378;20.360;2023-05-16T04:21:23;99922.31;;;15.08;84.05
74542;BME280;63015;45.378;20.360;2023-05-16T04:23:23;99929.19;;;15.12;83.56
74542;BME280;63015;45.378;20.360;2023-05-16T04:25:24;99933.59;;;15.10;83.60
74542;BME280;63015;45.378;20.360;2023-05-16T04:27:24;99929.97;;;15.16;83.51
74542;BME280;63015;45.378;20.360;2023-05-16T04:29:26;99931.59;;;15.20;83.37
74542;BME280;63015;45.378;20.360;2023-05-16T04:31:26;99925.03;;;15.04;84.11
74542;BME280;63015;45.378;20.360;2023-05-16T04:33:27;99926.41;;;15.17;83.96
74542;BME280;63015;45.378;20.360;2023-05-16T04:35:28;99924.94;;;15.07;84.02
74542;BME280;63015;45.378;20.360;2023-05-16T04:37:28;99911.03;;;15.05;84.24
74542;BME280;63015;45.378;20.360;2023-05-16T04:39:29;99912.75;;;15.06;84.43
74542;BME280;63015;45.378;20.360;2023-05-16T04:41:30;99910.28;;;15.00;84.44
74542;BME280;63015;45.378;20.360;2023-05-16T04:43:31;99895.44;;;14.99;84.97
74542;BME280;63015;45.378;20.360;2023-05-16T04:45:31;99905.00;;;15.01;84.91
74542;BME280;63015;45.378;20.360;2023-05-16T04:47:32;99898.91;;;15.01;84.88
74542;BME280;63015;45.378;20.360;2023-05-16T04:49:33;99896.22;;;15.02;84.79
74542;BME280;63015;45.378;20.360;2023-05-16T04:51:33;99885.22;;;14.89;85.61
74542;BME280;63015;45.378;20.360;2023-05-16T04:53:34;99878.97;;;14.93;85.47
74542;BME280;63015;45.378;20.360;2023-05-16T04:55:34;99897.09;;;15.03;85.21
74542;BME280;63015;45.378;20.360;2023-05-16T04:57:35;99900.59;;;15.02;85.08
74542;BME280;63015;45.378;20.360;2023-05-16T04:59:36;99910.94;;;15.08;84.93
74542;BME280;63015;45.378;20.360;2023-05-16T05:01:37;99918.66;;;15.14;84.37
74542;BME280;63015;45.378;20.360;2023-05-16T05:03:38;99920.78;;;15.31;83.47
74542;BME280;63015;45.378;20.360;2023-05-16T05:05:39;99911.19;;;15.30;83.55
74542;BME280;63015;45.378;20.360;2023-05-16T05:07:40;99903.88;;;15.41;83.10
74542;BME280;63015;45.378;20.360;2023-05-16T05:09:40;99888.44;;;15.31;83.71
74542;BME280;63015;45.378;20.360;2023-05-16T05:11:42;99874.41;;;15.32;83.80
74542;BME280;63015;45.378;20.360;2023-05-16T05:13:42;99877.66;;;15.40;83.04
74542;BME280;63015;45.378;20.360;2023-05-16T05:15:43;99888.03;;;15.44;83.29
74542;BME280;63015;45.378;20.360;2023-05-16T05:17:44;99894.03;;;15.48;82.82
74542;BME280;63015;45.378;20.360;2023-05-16T05:19:44;99882.09;;;15.38;83.13
74542;BME280;63015;45.378;20.360;2023-05-16T05:21:45;99882.97;;;15.38;83.19
74542;BME280;63015;45.378;20.360;2023-05-16T05:23:45;99867.72;;;15.21;84.20
74542;BME280;63015;45.378;20.360;2023-05-16T05:25:46;99868.94;;;15.39;83.56
74542;BME280;63015;45.378;20.360;2023-05-16T05:27:47;99860.13;;;15.40;82.74
74542;BME280;63015;45.378;20.360;2023-05-16T05:29:48;99843.63;;;15.37;82.87
74542;BME280;63015;45.378;20.360;2023-05-16T05:31:49;99855.59;;;15.45;82.32
74542;BME280;63015;45.378;20.360;2023-05-16T05:33:49;99869.22;;;15.58;81.99
74542;BME280;63015;45.378;20.360;2023-05-16T05:35:50;99888.09;;;15.71;81.84
74542;BME280;63015;45.378;20.360;2023-05-16T05:37:53;99905.31;;;15.82;80.82
74542;BME280;63015;45.378;20.360;2023-05-16T05:39:53;99911.22;;;15.90;80.66
74542;BME280;63015;45.378;20.360;2023-05-16T05:41:54;99914.56;;;15.95;80.08
74542;BME280;63015;45.378;20.360;2023-05-16T05:43:55;99929.31;;;15.99;79.78
74542;BME280;63015;45.378;20.360;2023-05-16T05:45:55;99936.13;;;16.06;79.50
74542;BME280;63015;45.378;20.360;2023-05-16T05:47:56;99950.91;;;16.09;79.27
74542;BME280;63015;45.378;20.360;2023-05-16T05:49:57;99944.66;;;16.13;79.18
74542;BME280;63015;45.378;20.360;2023-05-16T05:51:58;99936.72;;;16.15;79.21
74542;BME280;63015;45.378;20.360;2023-05-16T05:54:01;99939.34;;;16.15;79.06
74542;BME280;63015;45.378;20.360;2023-05-16T05:56:02;99928.63;;;16.21;78.76
74542;BME280;63015;45.378;20.360;2023-05-16T05:58:03;99934.81;;;16.20;79.15
74542;BME280;63015;45.378;20.360;2023-05-16T06:00:04;99933.84;;;16.22;78.87
74542;BME280;63015;45.378;20.360;2023-05-16T06:02:08;99940.81;;;16.23;78.81
74542;BME280;63015;45.378;20.360;2023-05-16T06:04:09;99945.13;;;16.26;78.91
74542;BME280;63015;45.378;20.360;2023-05-16T06:06:10;99948.28;;;16.37;78.37
74542;BME280;63015;45.378;20.360;2023-05-16T06:08:11;99951.88;;;16.35;78.39
74542;BME280;63015;45.378;20.360;2023-05-16T06:10:11;99948.16;;;16.40;78.08
74542;BME280;63015;45.378;20.360;2023-05-16T06:12:12;99942.13;;;16.37;78.30
74542;BME280;63015;45.378;20.360;2023-05-16T06:14:13;99922.75;;;16.41;78.10
74542;BME280;63015;45.378;20.360;2023-05-16T06:16:15;99921.03;;;16.40;77.79
74542;BME280;63015;45.378;20.360;2023-05-16T06:18:15;99910.81;;;16.31;78.67
74542;BME280;63015;45.378;20.360;2023-05-16T06:20:16;99884.41;;;16.34;79.06
74542;BME280;63015;45.378;20.360;2023-05-16T06:22:17;99868.50;;;16.38;78.82
74542;BME280;63015;45.378;20.360;2023-05-16T06:24:17;99852.28;;;16.24;78.82
74542;BME280;63015;45.378;20.360;2023-05-16T06:26:18;99839.66;;;16.35;78.61
74542;BME280;63015;45.378;20.360;2023-05-16T06:28:18;99848.38;;;16.10;78.65
74542;BME280;63015;45.378;20.360;2023-05-16T06:30:19;99840.78;;;16.28;78.08
74542;BME280;63015;45.378;20.360;2023-05-16T06:32:19;99842.72;;;16.23;78.63
74542;BME280;63015;45.378;20.360;2023-05-16T06:34:20;99850.22;;;16.34;78.46
74542;BME280;63015;45.378;20.360;2023-05-16T06:36:26;99875.28;;;16.44;78.22
74542;BME280;63015;45.378;20.360;2023-05-16T06:38:27;99884.47;;;16.57;78.06
74542;BME280;63015;45.378;20.360;2023-05-16T06:40:28;99904.09;;;16.74;77.65
74542;BME280;63015;45.378;20.360;2023-05-16T06:42:28;99912.53;;;16.84;77.23
74542;BME280;63015;45.378;20.360;2023-05-16T06:44:29;99916.81;;;16.86;77.20
74542;BME280;63015;45.378;20.360;2023-05-16T06:46:30;99902.66;;;16.90;76.78
74542;BME280;63015;45.378;20.360;2023-05-16T06:48:30;99892.00;;;16.95;76.61
74542;BME280;63015;45.378;20.360;2023-05-16T06:50:31;99893.81;;;16.93;76.36
74542;BME280;63015;45.378;20.360;2023-05-16T06:52:32;99885.78;;;16.96;75.47
74542;BME280;63015;45.378;20.360;2023-05-16T06:54:33;99887.44;;;16.99;75.95
74542;BME280;63015;45.378;20.360;2023-05-16T06:56:33;99885.69;;;16.99;75.89
74542;BME280;63015;45.378;20.360;2023-05-16T06:58:34;99896.78;;;17.07;75.37
74542;BME280;63015;45.378;20.360;2023-05-16T07:00:34;99890.56;;;17.10;75.32
74542;BME280;63015;45.378;20.360;2023-05-16T07:02:35;99898.03;;;17.22;75.03
74542;BME280;63015;45.378;20.360;2023-05-16T07:04:36;99892.28;;;17.35;74.62
74542;BME280;63015;45.378;20.360;2023-05-16T07:06:37;99887.59;;;17.43;73.76
74542;BME280;63015;45.378;20.360;2023-05-16T07:08:38;99893.78;;;17.42;73.72
74542;BME280;63015;45.378;20.360;2023-05-16T07:10:38;99884.22;;;17.39;73.30
74542;BME280;63015;45.378;20.360;2023-05-16T07:12:40;99876.09;;;17.46;73.48
74542;BME280;63015;45.378;20.360;2023-05-16T07:14:41;99878.78;;;17.44;73.38
74542;BME280;63015;45.378;20.360;2023-05-16T07:16:42;99871.81;;;17.43;73.63
74542;BME280;63015;45.378;20.360;2023-05-16T07:18:43;99865.34;;;17.50;73.88
74542;BME280;63015;45.378;20.360;2023-05-16T07:20:44;99878.06;;;17.63;73.29
74542;BME280;63015;45.378;20.360;2023-05-16T07:22:45;99877.03;;;17.67;73.57
74542;BME280;63015;45.378;20.360;2023-05-16T07:24:45;99867.00;;;17.77;73.08
74542;BME280;63015;45.378;20.360;2023-05-16T07:26:46;99865.88;;;17.82;72.78
74542;BME280;63015;45.378;20.360;2023-05-16T07:28:47;99867.78;;;17.79;72.28
74542;BME280;63015;45.378;20.360;2023-05-16T07:30:47;99863.81;;;17.90;72.71
74542;BME280;63015;45.378;20.360;2023-05-16T07:32:48;99872.97;;;18.04;72.91
74542;BME280;63015;45.378;20.360;2023-05-16T07:34:48;99867.19;;;18.16;72.08
74542;BME280;63015;45.378;20.360;2023-05-16T07:36:49;99871.16;;;18.27;71.85
74542;BME280;63015;45.378;20.360;2023-05-16T07:38:50;99890.34;;;18.30;72.00
74542;BME280;63015;45.378;20.360;2023-05-16T07:40:50;99877.81;;;18.35;71.37
74542;BME280;63015;45.378;20.360;2023-05-16T07:42:51;99886.28;;;18.44;71.28
74542;BME280;63015;45.378;20.360;2023-05-16T07:44:52;99889.66;;;18.47;71.04
74542;BME280;63015;45.378;20.360;2023-05-16T07:46:52;99893.22;;;18.46;70.28
74542;BME280;63015;45.378;20.360;2023-05-16T07:48:53;99899.66;;;18.39;70.15
74542;BME280;63015;45.378;20.360;2023-05-16T07:50:54;99898.97;;;18.34;70.43
74542;BME280;63015;45.378;20.360;2023-05-16T07:52:54;99921.94;;;18.32;70.56
74542;BME280;63015;45.378;20.360;2023-05-16T07:54:55;99933.59;;;18.26;70.66
74542;BME280;63015;45.378;20.360;2023-05-16T07:56:55;99929.44;;;18.20;71.08
74542;BME280;63015;45.378;20.360;2023-05-16T07:58:56;99923.47;;;18.15;71.07
74542;BME280;63015;45.378;20.360;2023-05-16T08:00:57;99929.75;;;18.13;70.97
74542;BME280;63015;45.378;20.360;2023-05-16T08:02:58;99937.06;;;18.04;70.47
74542;BME280;63015;45.378;20.360;2023-05-16T08:04:58;99931.19;;;17.98;70.26
74542;BME280;63015;45.378;20.360;2023-05-16T08:06:59;99943.91;;;17.86;70.82
74542;BME280;63015;45.378;20.360;2023-05-16T08:09:00;99927.31;;;17.84;70.86
74542;BME280;63015;45.378;20.360;2023-05-16T08:11:00;99930.91;;;17.82;70.43
74542;BME280;63015;45.378;20.360;2023-05-16T08:13:01;99939.81;;;17.79;70.63
74542;BME280;63015;45.378;20.360;2023-05-16T08:15:02;99940.72;;;17.78;70.77
74542;BME280;63015;45.378;20.360;2023-05-16T08:17:04;99938.00;;;17.80;71.25
74542;BME280;63015;45.378;20.360;2023-05-16T08:19:05;99945.97;;;17.78;71.36
74542;BME280;63015;45.378;20.360;2023-05-16T08:21:06;99939.06;;;17.75;71.70
74542;BME280;63015;45.378;20.360;2023-05-16T08:23:07;99932.81;;;17.78;71.61
74542;BME280;63015;45.378;20.360;2023-05-16T08:25:08;99933.66;;;17.79;71.91
74542;BME280;63015;45.378;20.360;2023-05-16T08:27:09;99934.53;;;17.79;71.98
74542;BME280;63015;45.378;20.360;2023-05-16T08:29:10;99929.81;;;17.87;72.37
74542;BME280;63015;45.378;20.360;2023-05-16T08:31:10;99931.47;;;17.90;72.33
74542;BME280;63015;45.378;20.360;2023-05-16T08:33:11;99920.06;;;17.89;72.58
74542;BME280;63015;45.378;20.360;2023-05-16T08:35:12;99912.16;;;17.89;72.39
74542;BME280;63015;45.378;20.360;2023-05-16T08:37:12;99918.28;;;17.90;72.71
74542;BME280;63015;45.378;20.360;2023-05-16T08:39:13;99924.53;;;17.87;72.71
74542;BME280;63015;45.378;20.360;2023-05-16T08:41:13;99929.72;;;17.90;72.42
74542;BME280;63015;45.378;20.360;2023-05-16T08:43:14;99906.97;;;17.88;72.88
74542;BME280;63015;45.378;20.360;2023-05-16T08:45:15;99891.44;;;17.80;73.54
74542;BME280;63015;45.378;20.360;2023-05-16T08:47:19;99873.53;;;17.66;73.54
74542;BME280;63015;45.378;20.360;2023-05-16T08:49:21;99880.41;;;17.70;73.23
74542;BME280;63015;45.378;20.360;2023-05-16T08:51:27;99890.09;;;17.70;73.24
74542;BME280;63015;45.378;20.360;2023-05-16T08:53:38;99906.91;;;17.66;72.36
74542;BME280;63015;45.378;20.360;2023-05-16T08:55:40;99920.38;;;17.58;72.69
74542;BME280;63015;45.378;20.360;2023-05-16T08:57:42;99921.19;;;17.60;71.58
74542;BME280;63015;45.378;20.360;2023-05-16T08:59:43;99929.25;;;17.55;71.88
74542;BME280;63015;45.378;20.360;2023-05-16T09:01:45;99921.63;;;17.49;72.04
74542;BME280;63015;45.378;20.360;2023-05-16T09:03:46;99921.78;;;17.45;72.10
74542;BME280;63015;45.378;20.360;2023-05-16T09:05:48;99918.84;;;17.52;71.95
74542;BME280;63015;45.378;20.360;2023-05-16T09:07:49;99923.44;;;17.47;71.92
74542;BME280;63015;45.378;20.360;2023-05-16T09:09:49;99906.72;;;17.48;71.30
74542;BME280;63015;45.378;20.360;2023-05-16T09:11:50;99911.41;;;17.40;70.89
74542;BME280;63015;45.378;20.360;2023-05-16T09:13:51;99911.88;;;17.51;70.48
74542;BME280;63015;45.378;20.360;2023-05-16T09:16:11;99919.22;;;17.43;69.14
74542;BME280;63015;45.378;20.360;2023-05-16T09:18:12;99916.06;;;17.57;69.85
74542;BME280;63015;45.378;20.360;2023-05-16T09:20:16;99903.28;;;17.70;69.22
74542;BME280;63015;45.378;20.360;2023-05-16T09:22:17;99912.34;;;17.85;68.72
74542;BME280;63015;45.378;20.360;2023-05-16T09:24:24;99903.44;;;17.87;68.33
74542;BME280;63015;45.378;20.360;2023-05-16T09:26:25;99915.28;;;18.01;67.84
74542;BME280;63015;45.378;20.360;2023-05-16T09:28:26;99919.81;;;17.97;67.78
74542;BME280;63015;45.378;20.360;2023-05-16T09:30:28;99917.72;;;18.05;67.69
74542;BME280;63015;45.378;20.360;2023-05-16T09:32:30;99904.34;;;17.88;67.77
74542;BME280;63015;45.378;20.360;2023-05-16T09:34:30;99900.63;;;17.94;67.28
74542;BME280;63015;45.378;20.360;2023-05-16T09:36:31;99896.47;;;17.86;66.67
74542;BME280;63015;45.378;20.360;2023-05-16T09:38:32;99892.69;;;17.94;67.04
74542;BME280;63015;45.378;20.360;2023-05-16T09:40:33;99896.50;;;18.08;67.22
74542;BME280;63015;45.378;20.360;2023-05-16T09:42:34;99897.78;;;18.20;66.53
74542;BME280;63015;45.378;20.360;2023-05-16T09:44:34;99902.81;;;18.27;65.83
74542;BME280;63015;45.378;20.360;2023-05-16T09:46:37;99911.31;;;18.33;65.44
74542;BME280;63015;45.378;20.360;2023-05-16T09:48:40;99908.88;;;18.29;63.34
74542;BME280;63015;45.378;20.360;2023-05-16T09:50:47;99911.03;;;18.19;62.98
74542;BME280;63015;45.378;20.360;2023-05-16T09:52:50;99913.00;;;18.14;63.42
74542;BME280;63015;45.378;20.360;2023-05-16T09:54:50;99911.34;;;18.11;63.55
74542;BME280;63015;45.378;20.360;2023-05-16T09:56:51;99901.03;;;18.27;63.62
74542;BME280;63015;45.378;20.360;2023-05-16T09:58:52;99914.22;;;18.27;62.49
74542;BME280;63015;45.378;20.360;2023-05-16T10:00:54;99896.34;;;18.34;62.58
74542;BME280;63015;45.378;20.360;2023-05-16T10:02:57;99879.22;;;18.44;62.40
74542;BME280;63015;45.378;20.360;2023-05-16T10:04:57;99873.81;;;18.47;61.94
74542;BME280;63015;45.378;20.360;2023-05-16T10:07:01;99874.16;;;18.60;61.17
74542;BME280;63015;45.378;20.360;2023-05-16T10:09:02;99859.84;;;18.66;60.59
74542;BME280;63015;45.378;20.360;2023-05-16T10:11:04;99854.13;;;18.75;59.68
74542;BME280;63015;45.378;20.360;2023-05-16T10:13:06;99850.06;;;18.68;59.60
74542;BME280;63015;45.378;20.360;2023-05-16T10:15:08;99864.59;;;18.57;59.59
74542;BME280;63015;45.378;20.360;2023-05-16T10:17:11;99850.06;;;18.68;59.68
74542;BME280;63015;45.378;20.360;2023-05-16T10:19:15;99835.88;;;18.70;58.87
74542;BME280;63015;45.378;20.360;2023-05-16T10:21:18;99844.72;;;18.69;58.95
74542;BME280;63015;45.378;20.360;2023-05-16T10:23:24;99841.75;;;18.77;59.33
74542;BME280;63015;45.378;20.360;2023-05-16T10:25:34;99830.63;;;18.91;59.36
74542;BME280;63015;45.378;20.360;2023-05-16T10:27:36;99837.19;;;19.01;59.83
74542;BME280;63015;45.378;20.360;2023-05-16T10:29:38;99837.63;;;19.11;59.54
74542;BME280;63015;45.378;20.360;2023-05-16T10:31:39;99855.97;;;19.14;59.65
74542;BME280;63015;45.378;20.360;2023-05-16T10:33:42;99852.84;;;19.25;60.05
74542;BME280;63015;45.378;20.360;2023-05-16T10:35:43;99861.56;;;19.27;60.15
74542;BME280;63015;45.378;20.360;2023-05-16T10:37:45;99854.41;;;19.29;59.99
74542;BME280;63015;45.378;20.360;2023-05-16T10:39:46;99849.19;;;19.28;59.74
74542;BME280;63015;45.378;20.360;2023-05-16T10:41:48;99846.13;;;19.18;59.74
74542;BME280;63015;45.378;20.360;2023-05-16T10:43:56;99846.19;;;19.16;59.48
74542;BME280;63015;45.378;20.360;2023-05-16T10:46:01;99834.03;;;19.12;59.65
74542;BME280;63015;45.378;20.360;2023-05-16T10:48:03;99823.75;;;19.06;59.02